Time;durP1;ratioP1;P1;durP2;ratioP2;P2;SDS_P1;SDS_P2;PMS_P1;PMS_P2;Temp;Humidity;BMP_temperature;BMP_pressure;BME280_temperature;BME280_humidity;BME280_pressure;Samples;Min_cycle;Max_cycle;Signal;HPM_P1;HPM_P2
2022/08/17 00:01:54;;;;;;;3.22;2.85;;;26.00;47.40;;;;;;5089607;28;20468;-44
2022/08/17 00:04:21;;;;;;;6.75;2.90;;;25.90;47.40;;;;;;5092484;28;20094;-41
2022/08/17 00:06:48;;;;;;;4.28;2.40;;;25.90;47.40;;;;;;5093545;28;20024;-42
2022/08/17 00:09:13;;;;;;;3.42;2.83;;;25.90;47.50;;;;;;5094105;28;20043;-42
2022/08/17 00:11:42;;;;;;;4.18;2.30;;;25.90;47.50;;;;;;5090814;28;20456;-44
2022/08/17 00:14:13;;;;;;;3.20;2.80;;;25.90;47.50;;;;;;5090092;28;20423;-42
2022/08/17 00:16:42;;;;;;;5.10;2.90;;;25.90;48.20;;;;;;5082837;28;20039;-41
2022/08/17 00:19:12;;;;;;;4.13;3.03;;;25.90;47.70;;;;;;5092213;28;20051;-44
2022/08/17 00:21:41;;;;;;;3.80;3.00;;;25.90;47.60;;;;;;5090981;28;20028;-41
2022/08/17 00:24:07;;;;;;;5.00;2.90;;;25.90;47.60;;;;;;5092691;28;20024;-42
2022/08/17 00:26:33;;;;;;;3.28;2.85;;;25.90;47.60;;;;;;5092266;28;20084;-41
2022/08/17 00:28:59;;;;;;;3.63;2.78;;;25.80;47.70;;;;;;5081741;28;20044;-43
2022/08/17 00:31:25;;;;;;;4.07;3.13;;;25.80;47.80;;;;;;5089482;28;20080;-45
2022/08/17 00:33:51;;;;;;;3.20;2.90;;;25.80;47.80;;;;;;5101584;28;20031;-43
2022/08/17 00:36:17;;;;;;;6.00;3.08;;;25.80;47.80;;;;;;5092015;28;20025;-45
2022/08/17 00:38:43;;;;;;;3.85;2.70;;;25.80;47.70;;;;;;5088970;28;20028;-45
2022/08/17 00:41:12;;;;;;;3.00;2.67;;;25.80;47.70;;;;;;5086135;28;20050;-41
2022/08/17 00:43:44;;;;;;;4.20;2.40;;;25.80;47.70;;;;;;5092121;28;20028;-42
2022/08/17 00:46:16;;;;;;;4.95;3.00;;;25.80;47.70;;;;;;5093838;28;20435;-43
2022/08/17 00:48:43;;;;;;;5.28;2.83;;;25.80;47.80;;;;;;5094652;28;20489;-42
2022/08/17 00:51:15;;;;;;;4.90;3.08;;;25.80;47.80;;;;;;5096474;28;20055;-45
2022/08/17 00:53:48;;;;;;;3.40;2.63;;;25.70;47.80;;;;;;5096369;28;20391;-46
2022/08/17 00:56:21;;;;;;;4.35;2.90;;;25.80;48.00;;;;;;5095965;28;20431;-41
2022/08/17 00:58:48;;;;;;;6.50;2.88;;;25.80;48.00;;;;;;5091612;28;20023;-42
2022/08/17 01:01:14;;;;;;;4.28;3.03;;;25.70;47.90;;;;;;5101723;28;20055;-43
2022/08/17 01:03:42;;;;;;;3.42;2.50;;;25.70;48.00;;;;;;5094256;28;20376;-44
2022/08/17 01:06:09;;;;;;;3.28;2.65;;;25.80;48.00;;;;;;5096207;28;20107;-41
2022/08/17 01:08:37;;;;;;;3.17;2.88;;;25.70;48.10;;;;;;5094646;28;20028;-45
2022/08/17 01:11:04;;;;;;;4.07;2.67;;;25.70;48.10;;;;;;5096079;28;20032;-42
2022/08/17 01:13:39;;;;;;;4.32;2.80;;;25.70;48.20;;;;;;5093901;28;20032;-43
2022/08/17 01:16:07;;;;;;;3.85;2.80;;;25.70;48.10;;;;;;5089212;28;20028;-43
2022/08/17 01:18:33;;;;;;;3.42;2.42;;;25.60;48.10;;;;;;5092249;28;20039;-44
2022/08/17 01:21:05;;;;;;;4.95;3.40;;;25.70;48.30;;;;;;5097059;28;20082;-41
2022/08/17 01:23:31;;;;;;;4.57;2.90;;;25.60;48.30;;;;;;5091718;28;20046;-41
2022/08/17 01:26:00;;;;;;;4.18;2.75;;;25.60;48.40;;;;;;5094467;28;20028;-44
2022/08/17 01:28:32;;;;;;;4.60;2.78;;;25.60;48.50;;;;;;5093847;28;20032;-41
2022/08/17 01:31:03;;;;;;;4.38;2.60;;;25.60;49.10;;;;;;5092331;28;20059;-42
2022/08/17 01:33:29;;;;;;;3.65;2.55;;;25.60;48.50;;;;;;5091945;28;20032;-43
2022/08/17 01:35:55;;;;;;;3.58;3.00;;;25.60;48.50;;;;;;5096738;28;20096;-41
2022/08/17 01:38:22;;;;;;;8.77;3.25;;;25.60;48.50;;;;;;5095205;28;20055;-44
2022/08/17 01:40:57;;;;;;;5.47;2.80;;;25.60;48.40;;;;;;5096779;28;20032;-41
2022/08/17 01:43:28;;;;;;;4.82;2.92;;;25.60;48.50;;;;;;5094117;28;20085;-43
2022/08/17 01:45:55;;;;;;;4.15;2.97;;;25.60;48.60;;;;;;5095345;28;20028;-43
2022/08/17 01:48:22;;;;;;;3.00;2.47;;;25.60;48.60;;;;;;5093492;28;20036;-41
2022/08/17 01:50:50;;;;;;;3.65;2.65;;;25.60;48.70;;;;;;5095728;28;20032;-40
2022/08/17 01:53:21;;;;;;;4.57;3.20;;;25.50;48.60;;;;;;5093042;28;20027;-41
2022/08/17 01:55:54;;;;;;;5.78;2.95;;;25.50;48.70;;;;;;5087274;28;20028;-43
2022/08/17 01:58:21;;;;;;;3.90;3.10;;;25.50;48.80;;;;;;5088354;28;20031;-43
2022/08/17 02:00:50;;;;;;;3.92;2.75;;;25.50;48.80;;;;;;5098301;28;20023;-41
2022/08/17 02:03:17;;;;;;;3.08;2.22;;;25.50;48.70;;;;;;5095127;28;20012;-41
2022/08/17 02:05:43;;;;;;;3.38;3.00;;;25.50;48.80;;;;;;5069383;28;20124;-42
2022/08/17 02:08:09;;;;;;;3.58;2.50;;;25.50;48.80;;;;;;5075127;28;20119;-41
2022/08/17 02:10:34;;;;;;;3.50;2.53;;;25.50;48.80;;;;;;5075528;28;20032;-41
2022/08/17 02:13:03;;;;;;;4.60;2.80;;;25.50;48.80;;;;;;5073785;28;20031;-40
2022/08/17 02:15:29;;;;;;;3.78;2.72;;;25.40;48.80;;;;;;5071014;28;20032;-41
2022/08/17 02:17:54;;;;;;;3.67;2.65;;;25.40;48.80;;;;;;5074105;28;20040;-41
2022/08/17 02:20:21;;;;;;;5.43;2.75;;;25.40;48.90;;;;;;5073961;28;20096;-41
2022/08/17 02:22:48;;;;;;;4.93;3.58;;;25.40;48.90;;;;;;5068220;28;20063;-41
2022/08/17 02:25:17;;;;;;;4.57;2.92;;;25.40;48.90;;;;;;5072030;28;20079;-42
2022/08/17 02:27:43;;;;;;;3.92;2.38;;;25.40;48.80;;;;;;5071902;28;20036;-41
2022/08/17 02:30:12;;;;;;;3.78;2.42;;;25.40;48.70;;;;;;5071460;28;20039;-43
2022/08/17 02:32:37;;;;;;;2.83;2.50;;;25.40;48.70;;;;;;5070602;28;20029;-50
2022/08/17 02:35:04;;;;;;;2.40;2.20;;;25.40;48.60;;;;;;5072017;28;20099;-41
2022/08/17 02:37:30;;;;;;;2.90;2.30;;;25.40;48.60;;;;;;5073639;28;20111;-40
2022/08/17 02:39:58;;;;;;;2.92;2.30;;;25.40;48.70;;;;;;5060723;28;20470;-43
2022/08/17 02:42:30;;;;;;;4.10;2.45;;;25.40;48.70;;;;;;5072906;28;20103;-41
2022/08/17 02:44:56;;;;;;;4.10;2.55;;;25.40;48.70;;;;;;5072491;28;20430;-41
2022/08/17 02:47:23;;;;;;;2.45;2.20;;;25.40;48.80;;;;;;5072309;28;20041;-43
2022/08/17 02:49:49;;;;;;;3.35;2.47;;;25.30;48.70;;;;;;5070213;28;20103;-41
2022/08/17 02:52:14;;;;;;;3.30;2.95;;;25.30;48.70;;;;;;5072236;28;20528;-41
2022/08/17 02:54:40;;;;;;;4.78;2.90;;;25.30;48.80;;;;;;5072714;28;20461;-41
2022/08/17 02:57:06;;;;;;;2.92;2.22;;;25.30;48.80;;;;;;5068373;28;20048;-51
2022/08/17 02:59:31;;;;;;;4.50;2.33;;;25.30;49.00;;;;;;5070864;28;20021;-41
2022/08/17 03:01:57;;;;;;;4.47;2.58;;;25.30;49.00;;;;;;5072205;28;20024;-43
2022/08/17 03:04:22;;;;;;;4.28;2.60;;;25.30;49.00;;;;;;5070619;28;20041;-41
2022/08/17 03:06:48;;;;;;;3.97;2.65;;;25.30;49.00;;;;;;5073336;28;20025;-41
2022/08/17 03:09:15;;;;;;;2.88;2.60;;;25.30;49.10;;;;;;5072224;28;20070;-40
2022/08/17 03:11:41;;;;;;;3.22;2.90;;;25.30;49.10;;;;;;5072032;28;20056;-40
2022/08/17 03:14:07;;;;;;;3.28;2.67;;;25.20;49.10;;;;;;5070398;28;20032;-43
2022/08/17 03:16:33;;;;;;;3.65;2.70;;;25.30;49.20;;;;;;5070026;28;20024;-45
2022/08/17 03:18:58;;;;;;;4.45;2.80;;;25.30;49.30;;;;;;5071590;28;20031;-41
2022/08/17 03:21:24;;;;;;;4.82;2.90;;;25.20;49.20;;;;;;5071199;28;20039;-41
2022/08/17 03:23:50;;;;;;;3.08;2.35;;;25.20;49.30;;;;;;5071594;28;20139;-41
2022/08/17 03:26:15;;;;;;;5.55;2.95;;;25.30;49.40;;;;;;5066201;28;20028;-42
2022/08/17 03:28:41;;;;;;;3.03;2.75;;;25.20;49.30;;;;;;5070561;28;20040;-41
2022/08/17 03:31:07;;;;;;;2.97;2.50;;;25.20;49.20;;;;;;5063965;28;20037;-41
2022/08/17 03:33:32;;;;;;;3.78;2.90;;;25.20;49.20;;;;;;5070713;28;20029;-40
2022/08/17 03:35:58;;;;;;;4.15;2.75;;;25.20;49.30;;;;;;5071303;28;20103;-41
2022/08/17 03:38:25;;;;;;;3.63;2.70;;;25.20;50.00;;;;;;5072490;28;20115;-43
2022/08/17 03:40:52;;;;;;;4.43;3.03;;;25.20;49.30;;;;;;5074308;28;20079;-41
2022/08/17 03:43:19;;;;;;;4.00;2.65;;;25.20;49.40;;;;;;5073706;28;20461;-41
2022/08/17 03:57:18;;;;;;;4.80;2.75;;;25.20;49.50;;;;;;5072197;28;20039;-41
2022/08/17 03:59:44;;;;;;;6.25;2.55;;;25.20;49.40;;;;;;5055525;28;20154;-41
2022/08/17 04:02:27;;;;;;;3.85;2.55;;;25.20;49.30;;;;;;5071407;28;20074;-41
2022/08/17 04:04:53;;;;;;;6.00;3.05;;;25.20;49.20;;;;;;5069339;28;20136;-41
2022/08/17 04:07:20;;;;;;;3.65;2.60;;;25.20;49.30;;;;;;5069782;28;20487;-41
2022/08/17 04:09:46;;;;;;;2.55;2.30;;;25.20;49.40;;;;;;5072306;28;20043;-42
2022/08/17 04:12:14;;;;;;;4.85;2.65;;;25.20;49.30;;;;;;5068581;28;20033;-41
2022/08/17 04:14:40;;;;;;;4.35;2.55;;;25.20;49.50;;;;;;5070345;28;20029;-41
2022/08/17 04:17:06;;;;;;;3.80;2.58;;;25.20;49.60;;;;;;5073456;28;20024;-42
2022/08/17 04:19:31;;;;;;;4.15;3.10;;;25.20;49.70;;;;;;5071086;28;20108;-43
2022/08/17 04:21:57;;;;;;;4.88;2.20;;;25.20;49.70;;;;;;5062594;28;20025;-53
2022/08/17 04:24:24;;;;;;;5.18;2.55;;;25.20;49.70;;;;;;5059047;28;20024;-41
2022/08/17 04:26:49;;;;;;;4.53;2.83;;;25.20;49.80;;;;;;5068854;28;20051;-41
2022/08/17 04:29:15;;;;;;;3.70;2.97;;;25.20;49.90;;;;;;5071276;28;20473;-41
2022/08/17 04:31:42;;;;;;;5.63;3.30;;;25.20;50.00;;;;;;5071906;28;20032;-42
2022/08/17 04:34:08;;;;;;;4.55;3.33;;;25.10;50.00;;;;;;5067770;28;20029;-42
2022/08/17 04:36:34;;;;;;;5.40;3.95;;;25.10;50.00;;;;;;5071893;28;20024;-41
2022/08/17 04:39:00;;;;;;;7.22;3.65;;;25.10;50.20;;;;;;5072700;28;20032;-42
2022/08/17 04:44:11;;;;;;;3.60;3.20;;;25.20;50.10;;;;;;5068231;28;20098;-46
2022/08/17 04:46:37;;;;;;;5.53;3.42;;;25.20;49.80;;;;;;5069983;28;20028;-41
2022/08/17 04:49:07;;;;;;;5.63;2.95;;;25.30;49.80;;;;;;5070252;28;20048;-41
2022/08/17 04:51:36;;;;;;;5.63;3.50;;;25.30;49.90;;;;;;5070780;28;20066;-41
2022/08/17 04:54:05;;;;;;;4.75;2.90;;;25.30;49.80;;;;;;5070872;28;20028;-41
2022/08/17 04:56:32;;;;;;;4.63;2.95;;;25.30;49.80;;;;;;5067114;28;20033;-48
2022/08/17 04:59:02;;;;;;;3.95;3.15;;;25.30;49.80;;;;;;5068096;28;20481;-50
2022/08/17 05:01:32;;;;;;;4.38;2.92;;;25.30;49.80;;;;;;5070020;28;20440;-42
2022/08/17 05:04:01;;;;;;;6.90;2.83;;;25.20;49.90;;;;;;5071436;28;20062;-41
2022/08/17 05:06:27;;;;;;;7.35;3.42;;;25.20;49.80;;;;;;5072941;28;20363;-40
2022/08/17 05:08:54;;;;;;;4.53;3.55;;;25.10;50.00;;;;;;5075406;28;20058;-41
2022/08/17 05:11:20;;;;;;;4.47;2.45;;;25.00;50.20;;;;;;5071050;28;20090;-41
2022/08/17 05:13:48;;;;;;;4.00;2.47;;;24.90;50.30;;;;;;5066919;28;20108;-41
2022/08/17 05:16:15;;;;;;;5.88;2.53;;;24.80;50.60;;;;;;5070418;28;20060;-42
2022/08/17 05:18:41;;;;;;;3.30;2.80;;;24.80;50.90;;;;;;5065811;28;20482;-42
2022/08/17 05:21:07;;;;;;;4.65;3.10;;;24.80;51.70;;;;;;5061770;28;20108;-42
2022/08/17 05:23:34;;;;;;;5.00;2.45;;;24.80;51.80;;;;;;5069313;28;20432;-42
2022/08/17 05:26:00;;;;;;;6.07;3.33;;;24.80;51.40;;;;;;5071517;28;20032;-42
2022/08/17 05:28:26;;;;;;;4.70;3.45;;;24.80;51.80;;;;;;5064361;28;20049;-41
2022/08/17 05:30:53;;;;;;;6.30;3.88;;;24.70;52.90;;;;;;5063175;28;20439;-41
2022/08/17 05:33:28;;;;;;;9.52;5.22;;;24.80;52.10;;;;;;5059688;28;20028;-41
2022/08/17 05:35:56;;;;;;;6.43;3.35;;;24.80;52.00;;;;;;5073105;28;20385;-43
2022/08/17 05:38:24;;;;;;;7.22;3.97;;;24.80;51.70;;;;;;5074075;28;20028;-41
2022/08/17 05:40:50;;;;;;;7.22;4.22;;;24.80;51.70;;;;;;5074188;28;20028;-41
2022/08/17 05:43:22;;;;;;;7.35;4.22;;;24.80;51.80;;;;;;5073725;28;20113;-41
2022/08/17 05:45:58;;;;;;;5.90;4.20;;;24.80;51.90;;;;;;5073382;28;20031;-41
2022/08/17 05:48:24;;;;;;;7.32;4.13;;;24.80;52.10;;;;;;5072877;28;20081;-41
2022/08/17 05:50:59;;;;;;;5.85;4.35;;;24.80;52.10;;;;;;5071683;28;20494;-41
2022/08/17 05:53:31;;;;;;;9.00;4.07;;;24.80;52.30;;;;;;5076193;28;20028;-42
2022/08/17 05:56:11;;;;;;;7.47;4.07;;;24.80;52.30;;;;;;5074154;28;20050;-42
2022/08/17 05:58:55;;;;;;;9.57;4.57;;;24.80;52.30;;;;;;5068339;28;20377;-42
2022/08/17 06:01:39;;;;;;;9.63;4.43;;;24.80;52.20;;;;;;5061022;28;20036;-44
2022/08/17 06:04:38;;;;;;;5.18;3.75;;;24.80;52.80;;;;;;5072655;28;20106;-42
2022/08/17 06:07:09;;;;;;;5.97;3.80;;;24.70;52.20;;;;;;5030898;28;20051;-50
2022/08/17 06:09:35;;;;;;;7.57;4.28;;;24.70;52.00;;;;;;5070270;28;20112;-43
2022/08/17 06:12:25;;;;;;;5.25;3.38;;;24.70;52.00;;;;;;5073149;28;20107;-48
2022/08/17 06:15:12;;;;;;;5.97;3.83;;;24.70;51.80;;;;;;5073781;28;20059;-44
2022/08/17 06:17:40;;;;;;;4.85;3.97;;;24.60;52.10;;;;;;5073245;28;20071;-43
2022/08/17 06:20:13;;;;;;;8.70;3.80;;;24.60;52.70;;;;;;5073553;28;20473;-41
2022/08/17 06:22:45;;;;;;;6.30;4.03;;;24.60;52.80;;;;;;5063592;28;20420;-43
2022/08/17 06:25:13;;;;;;;6.85;3.83;;;24.70;53.00;;;;;;5064626;28;20062;-42
2022/08/17 06:27:58;;;;;;;8.95;4.13;;;24.60;53.30;;;;;;5071244;28;20392;-41
2022/08/17 06:30:27;;;;;;;5.65;3.67;;;24.60;53.50;;;;;;5040461;28;20729;-46
2022/08/17 06:32:58;;;;;;;5.43;3.58;;;24.60;53.70;;;;;;5057804;28;20036;-42
2022/08/17 06:36:11;;;;;;;8.82;3.63;;;24.70;53.80;;;;;;5065653;28;20025;-47
2022/08/17 06:39:06;;;;;;;4.78;3.90;;;24.80;53.70;;;;;;5062292;28;20041;-41
2022/08/17 06:41:44;;;;;;;6.93;4.00;;;24.80;54.10;;;;;;5061313;28;20044;-41
2022/08/17 06:44:42;;;;;;;5.57;3.67;;;24.80;54.40;;;;;;5068804;28;20182;-42
2022/08/17 06:47:25;;;;;;;8.57;3.50;;;24.90;54.50;;;;;;5070896;28;20141;-41
2022/08/17 06:50:14;;;;;;;6.43;4.05;;;24.90;54.40;;;;;;5069911;28;20416;-41
2022/08/17 06:53:11;;;;;;;6.22;3.80;;;25.00;54.30;;;;;;5067786;28;20083;-42
2022/08/17 06:55:58;;;;;;;9.48;3.20;;;25.00;54.00;;;;;;5070508;28;20058;-43
2022/08/17 06:58:26;;;;;;;3.95;3.45;;;25.10;53.80;;;;;;5065138;28;20243;-48
2022/08/17 07:00:57;;;;;;;6.30;3.70;;;25.20;53.50;;;;;;5071141;28;20106;-42
2022/08/17 07:03:37;;;;;;;4.60;3.42;;;25.40;53.20;;;;;;5065917;28;20025;-43
2022/08/17 07:06:19;;;;;;;7.63;3.92;;;25.40;52.70;;;;;;5070510;28;20131;-51
2022/08/17 07:09:07;;;;;;;8.75;3.83;;;25.50;52.50;;;;;;5073832;28;20116;-43
2022/08/17 07:11:53;;;;;;;5.95;3.90;;;25.50;52.60;;;;;;5066712;28;20067;-41
2022/08/17 07:14:28;;;;;;;5.93;3.50;;;25.50;52.50;;;;;;5068118;28;20085;-43
2022/08/17 07:16:57;;;;;;;7.70;4.00;;;25.50;52.40;;;;;;5070176;28;20044;-42
2022/08/17 07:19:25;;;;;;;6.70;3.67;;;25.60;52.60;;;;;;5070525;28;20604;-45
2022/08/17 07:22:19;;;;;;;8.50;4.28;;;25.60;52.50;;;;;;5070888;28;20036;-41
2022/08/17 07:25:08;;;;;;;6.85;3.72;;;25.60;51.90;;;;;;5067201;28;20468;-42
2022/08/17 07:27:44;;;;;;;7.10;3.83;;;25.70;51.20;;;;;;5070818;28;20071;-44
2022/08/17 07:30:18;;;;;;;5.32;3.72;;;25.70;51.30;;;;;;5069957;28;20024;-42
2022/08/17 07:32:49;;;;;;;6.65;3.42;;;25.80;51.20;;;;;;5067917;28;20044;-44
2022/08/17 07:35:19;;;;;;;4.57;3.22;;;25.80;50.90;;;;;;5061058;28;20037;-40
2022/08/17 07:38:16;;;;;;;6.25;3.33;;;25.80;50.20;;;;;;5071080;28;20051;-41
2022/08/17 07:40:47;;;;;;;5.15;2.88;;;25.90;49.80;;;;;;5064127;28;20038;-41
2022/08/17 07:43:30;;;;;;;4.73;3.43;;;25.90;49.60;;;;;;5061059;28;20035;-41
2022/08/17 07:57:34;;;;;;;16.73;3.70;;;26.10;49.80;;;;;;5240116;23;20127;-50
2022/08/17 07:59:59;;;;;;;8.25;3.65;;;26.10;49.80;;;;;;4981107;28;20030;-51
2022/08/17 08:02:33;;;;;;;4.90;3.25;;;26.10;49.80;;;;;;4984221;28;20497;-51
2022/08/17 08:05:03;;;;;;;4.53;3.47;;;26.20;49.80;;;;;;4994825;28;20021;-48
2022/08/17 08:07:56;;;;;;;6.40;3.23;;;26.20;49.60;;;;;;4986934;28;20046;-50
2022/08/17 08:10:42;;;;;;;10.75;3.92;;;26.30;49.70;;;;;;4992991;28;20277;-52
2022/08/17 08:13:10;;;;;;;7.40;3.25;;;26.30;49.70;;;;;;4989828;28;20038;-48
2022/08/17 08:15:49;;;;;;;4.07;3.15;;;26.30;49.70;;;;;;4995439;28;20433;-53
2022/08/17 08:18:38;;;;;;;5.60;3.60;;;26.30;49.60;;;;;;4997778;28;20092;-49
2022/08/17 08:21:27;;;;;;;5.50;3.45;;;26.30;49.60;;;;;;4993357;28;20081;-51
2022/08/17 08:24:03;;;;;;;5.57;3.20;;;26.40;49.90;;;;;;4996750;28;20044;-53
2022/08/17 08:27:06;;;;;;;5.32;3.38;;;26.40;49.90;;;;;;5001276;28;20034;-51
2022/08/17 08:29:42;;;;;;;5.55;3.40;;;26.40;49.70;;;;;;4992347;28;20056;-53
2022/08/17 08:32:30;;;;;;;5.03;3.22;;;26.50;49.70;;;;;;4997146;28;20105;-50
2022/08/17 08:35:12;;;;;;;5.53;3.53;;;26.50;49.60;;;;;;4997522;28;20390;-52
2022/08/17 08:38:01;;;;;;;7.32;3.63;;;26.50;49.60;;;;;;4984654;28;20041;-58
2022/08/17 08:40:44;;;;;;;7.45;3.47;;;26.50;49.40;;;;;;4986438;28;20423;-56
2022/08/17 08:43:17;;;;;;;4.35;3.30;;;26.60;49.30;;;;;;4981854;28;20049;-49
2022/08/17 08:46:11;;;;;;;3.70;3.40;;;26.60;49.80;;;;;;4998222;28;20083;-51
2022/08/17 08:48:52;;;;;;;5.75;3.08;;;26.60;49.10;;;;;;4998669;28;20077;-49
2022/08/17 08:51:54;;;;;;;3.20;2.83;;;26.60;49.00;;;;;;4993394;28;20076;-50
2022/08/17 08:54:45;;;;;;;4.25;2.80;;;26.60;49.70;;;;;;4972331;28;20041;-51
2022/08/17 08:57:28;;;;;;;4.97;3.05;;;26.70;49.30;;;;;;4984478;28;20450;-50
2022/08/17 09:00:14;;;;;;;4.15;3.53;;;26.60;49.30;;;;;;5004792;28;20034;-50
2022/08/17 09:02:55;;;;;;;5.13;3.38;;;26.60;49.40;;;;;;4988892;28;20042;-47
2022/08/17 09:05:48;;;;;;;5.90;3.45;;;26.60;49.50;;;;;;5004879;28;20065;-53
2022/08/17 09:08:18;;;;;;;5.05;2.83;;;26.60;49.40;;;;;;4992628;28;20045;-51
2022/08/17 09:11:10;;;;;;;5.05;3.38;;;26.70;49.50;;;;;;5002723;28;20093;-54
2022/08/17 09:14:13;;;;;;;3.92;3.38;;;26.70;49.50;;;;;;4995125;28;20100;-47
2022/08/17 09:16:51;;;;;;;7.05;2.83;;;26.70;49.40;;;;;;4992586;28;20039;-49
2022/08/17 09:19:29;;;;;;;5.78;3.33;;;26.80;49.60;;;;;;5006785;28;20053;-52
2022/08/17 09:22:02;;;;;;;7.97;2.80;;;26.80;49.60;;;;;;4999493;28;20181;-48
2022/08/17 09:24:38;;;;;;;6.30;3.25;;;26.80;49.60;;;;;;4995234;28;20043;-53
2022/08/17 09:27:15;;;;;;;13.73;3.47;;;26.80;49.60;;;;;;4986251;28;20031;-53
2022/08/17 09:29:56;;;;;;;7.03;3.42;;;26.80;49.70;;;;;;4992310;28;20035;-50
2022/08/17 09:32:40;;;;;;;;;;;26.80;49.70;;;;;;4991573;28;20117;-48
2022/08/17 09:35:18;;;;;;;5.20;3.20;;;26.80;49.90;;;;;;4996969;28;20275;-52
2022/08/17 09:37:58;;;;;;;5.03;3.15;;;26.80;49.90;;;;;;5000571;28;20037;-48
2022/08/17 09:41:02;;;;;;;7.13;3.20;;;26.80;50.10;;;;;;4995578;28;20456;-57
2022/08/17 09:43:45;;;;;;;6.35;3.28;;;26.80;50.10;;;;;;4920930;28;20044;-52
2022/08/17 09:46:15;;;;;;;6.32;3.75;;;26.80;50.20;;;;;;4996764;28;20037;-54
2022/08/17 09:48:49;;;;;;;6.55;3.17;;;26.80;50.40;;;;;;4998826;28;20105;-51
2022/08/17 09:51:14;;;;;;;7.70;3.45;;;26.70;50.40;;;;;;4993104;28;20027;-53
2022/08/17 09:53:40;;;;;;;4.63;3.35;;;26.80;50.90;;;;;;4995056;28;20048;-54
2022/08/17 09:56:22;;;;;;;9.18;4.30;;;26.70;51.30;;;;;;4995449;28;20038;-53
2022/08/17 09:59:20;;;;;;;6.65;3.20;;;26.70;51.30;;;;;;4989037;28;20113;-49
2022/08/17 10:02:19;;;;;;;6.60;3.33;;;26.80;51.30;;;;;;4986939;28;20115;-51
2022/08/17 10:04:54;;;;;;;5.75;3.40;;;26.80;51.60;;;;;;4997738;28;20030;-56
2022/08/17 10:07:34;;;;;;;4.88;3.53;;;26.80;51.50;;;;;;4993839;28;20027;-54
2022/08/17 10:10:06;;;;;;;5.93;3.60;;;26.80;51.40;;;;;;4993634;28;20046;-53
2022/08/17 10:12:59;;;;;;;6.53;3.20;;;26.90;51.50;;;;;;4991714;28;20048;-52
2022/08/17 10:15:47;;;;;;;5.63;3.15;;;26.90;51.50;;;;;;4976653;28;20069;-62
2022/08/17 10:18:20;;;;;;;6.47;3.58;;;26.90;51.60;;;;;;4992886;28;20471;-53
2022/08/17 10:26:11;;;;;;;3.50;2.80;;;26.90;51.70;;;;;;4994142;28;20023;-49
2022/08/17 10:26:31;;;;;;;8.32;3.40;;;26.90;51.70;;;;;;4993601;28;20065;-63
2022/08/17 10:29:09;;;;;;;6.03;3.60;;;26.90;51.80;;;;;;4996094;28;20061;-47
2022/08/17 10:31:39;;;;;;;7.13;3.50;;;27.00;51.60;;;;;;4985835;28;20097;-54
2022/08/17 10:34:38;;;;;;;9.37;4.00;;;27.00;51.40;;;;;;4993586;28;20038;-48
2022/08/17 10:37:09;;;;;;;7.32;3.15;;;27.00;51.50;;;;;;4938513;28;20831;-50
2022/08/17 10:40:10;;;;;;;;;;;27.00;51.30;;;;;;4993101;28;20132;-56
2022/08/17 10:42:49;;;;;;;5.55;2.95;;;27.10;51.40;;;;;;4933168;29;19953;-48
2022/08/17 10:45:29;;;;;;;4.07;3.47;;;27.10;51.10;;;;;;4984888;28;20070;-50
2022/08/17 10:47:58;;;;;;;8.15;4.00;;;27.20;51.70;;;;;;4992758;28;20434;-50
2022/08/17 10:50:56;;;;;;;5.07;3.10;;;27.20;51.20;;;;;;4991731;28;20041;-50
2022/08/17 10:53:31;;;;;;;3.72;3.42;;;27.20;51.10;;;;;;4993312;28;20465;-48
2022/08/17 10:56:12;;;;;;;5.65;3.45;;;27.20;51.10;;;;;;4998050;28;20046;-52
2022/08/17 10:58:53;;;;;;;4.13;2.93;;;27.30;50.80;;;;;;4994721;28;20128;-49
2022/08/17 11:01:31;;;;;;;;;;;27.30;50.60;;;;;;4991042;28;20777;-50
2022/08/17 11:04:05;;;;;;;5.63;3.22;;;27.30;51.30;;;;;;4994952;28;19917;-50
2022/08/17 11:06:47;;;;;;;6.20;2.92;;;27.30;50.40;;;;;;4986588;28;20415;-50
2022/08/17 11:09:18;;;;;;;4.40;3.05;;;27.30;49.90;;;;;;4999465;28;20137;-54
2022/08/17 11:12:24;;;;;;;4.68;2.88;;;27.30;50.00;;;;;;5003224;28;20089;-52
2022/08/17 11:15:14;;;;;;;5.28;2.92;;;27.30;50.30;;;;;;4987475;28;20140;-55
2022/08/17 11:18:00;;;;;;;3.53;2.80;;;27.30;50.00;;;;;;4988209;28;20026;-47
2022/08/17 11:20:54;;;;;;;6.20;2.75;;;27.30;49.90;;;;;;4991239;28;20037;-58
2022/08/17 11:23:32;;;;;;;3.58;2.80;;;27.30;49.70;;;;;;4988267;28;20125;-50
2022/08/17 11:26:02;;;;;;;3.03;2.67;;;27.30;49.70;;;;;;4987430;28;21299;-51
2022/08/17 11:28:34;;;;;;;2.92;2.33;;;27.30;49.70;;;;;;4993289;28;20486;-57
2022/08/17 11:31:22;;;;;;;4.18;2.88;;;27.30;49.80;;;;;;4995530;28;20460;-51
2022/08/17 11:34:03;;;;;;;5.32;2.40;;;27.30;50.00;;;;;;4982093;28;20117;-55
2022/08/17 11:36:31;;;;;;;3.75;2.55;;;27.30;49.80;;;;;;4984598;28;20046;-56
2022/08/17 11:39:24;;;;;;;3.53;2.50;;;27.30;49.90;;;;;;4997680;28;20029;-52
2022/08/17 11:42:35;;;;;;;5.25;2.35;;;27.30;49.80;;;;;;4993162;28;20323;-51
2022/08/17 11:45:30;;;;;;;5.20;2.35;;;27.30;49.90;;;;;;4989309;28;20048;-48
2022/08/17 11:54:39;;;;;;;7.63;2.70;;;27.30;50.20;;;;;;4953219;28;20117;-52
2022/08/17 11:57:28;;;;;;;3.97;2.65;;;27.30;50.50;;;;;;4984445;28;20133;-47
2022/08/17 11:59:59;;;;;;;4.93;2.90;;;27.20;50.60;;;;;;4996259;28;20497;-49
2022/08/17 12:02:26;;;;;;;5.00;2.90;;;27.20;50.80;;;;;;4984359;28;20052;-52
2022/08/17 12:05:13;;;;;;;3.22;2.65;;;27.20;50.60;;;;;;4996554;28;20022;-48
2022/08/17 12:08:07;;;;;;;4.70;2.38;;;27.20;50.60;;;;;;4975375;28;20045;-48
2022/08/17 12:10:38;;;;;;;3.40;2.70;;;27.20;50.50;;;;;;4991608;28;21003;-50
2022/08/17 12:13:11;;;;;;;3.50;2.45;;;27.30;50.60;;;;;;4993809;28;20054;-54
2022/08/17 12:15:43;;;;;;;4.03;2.70;;;27.20;50.50;;;;;;4994463;28;20399;-49
2022/08/17 12:18:26;;;;;;;6.70;2.72;;;27.30;50.60;;;;;;4990749;28;20077;-49
2022/08/17 12:21:18;;;;;;;3.78;2.60;;;27.30;50.70;;;;;;4993861;28;20046;-49
2022/08/17 12:24:12;;;;;;;4.20;2.67;;;27.30;50.50;;;;;;4989137;28;20033;-49
2022/08/17 12:26:39;;;;;;;4.75;2.65;;;27.30;50.60;;;;;;4984596;28;20031;-52
2022/08/17 12:29:14;;;;;;;3.78;2.60;;;27.30;51.30;;;;;;4996073;28;20364;-55
2022/08/17 12:31:46;;;;;;;3.50;2.85;;;27.30;50.50;;;;;;4995028;28;20034;-52
2022/08/17 12:34:24;;;;;;;;;;;27.30;50.30;;;;;;4996835;28;20038;-55
2022/08/17 12:36:53;;;;;;;5.72;2.83;;;27.30;50.30;;;;;;4985819;28;19910;-48
2022/08/17 12:39:23;;;;;;;4.30;2.50;;;27.30;50.30;;;;;;4990750;28;20415;-47
2022/08/17 12:41:55;;;;;;;5.30;2.13;;;27.30;50.10;;;;;;4987496;28;20129;-46
2022/08/17 12:44:22;;;;;;;4.95;3.10;;;27.30;50.20;;;;;;4987782;28;20038;-47
2022/08/17 12:47:06;;;;;;;4.00;2.70;;;27.30;49.90;;;;;;4982890;28;20053;-45
2022/08/17 12:49:41;;;;;;;5.25;2.53;;;27.30;50.30;;;;;;4991477;28;20038;-54
2022/08/17 12:52:18;;;;;;;4.07;2.78;;;27.30;50.00;;;;;;4989939;28;20058;-45
2022/08/17 12:54:58;;;;;;;4.30;2.65;;;27.30;50.00;;;;;;4999764;28;20403;-46
2022/08/17 12:57:38;;;;;;;5.25;3.53;;;27.20;49.90;;;;;;4983420;28;20399;-47
2022/08/17 13:00:16;;;;;;;4.55;3.13;;;27.30;50.10;;;;;;4998859;28;20073;-47
2022/08/17 13:03:04;;;;;;;3.33;2.65;;;27.30;50.10;;;;;;4993605;28;20030;-47
2022/08/17 13:05:33;;;;;;;4.32;2.72;;;27.30;50.20;;;;;;4987509;28;20027;-55
2022/08/17 13:08:00;;;;;;;4.97;2.60;;;27.30;50.20;;;;;;4984600;28;20081;-47
2022/08/17 13:10:32;;;;;;;3.35;2.53;;;27.30;50.00;;;;;;4991601;28;20034;-48
2022/08/17 13:13:02;;;;;;;3.78;2.83;;;27.40;50.00;;;;;;4994008;28;20022;-49
2022/08/17 13:15:30;;;;;;;3.72;2.35;;;27.30;49.20;;;;;;4994488;28;20045;-46
2022/08/17 13:18:06;;;;;;;3.42;2.65;;;27.30;49.20;;;;;;4995506;28;20034;-46
2022/08/17 13:20:33;;;;;;;5.25;2.50;;;27.20;49.20;;;;;;4991842;28;20026;-56
2022/08/17 13:23:01;;;;;;;4.38;3.05;;;27.20;49.30;;;;;;4992927;28;20033;-47
2022/08/17 13:25:28;;;;;;;2.72;2.42;;;27.20;49.30;;;;;;4997456;28;20031;-46
2022/08/17 13:27:55;;;;;;;5.28;2.42;;;27.20;49.40;;;;;;4978959;28;20101;-46
2022/08/17 13:30:30;;;;;;;7.38;2.90;;;27.10;49.30;;;;;;5001371;28;20036;-47
2022/08/17 13:32:56;;;;;;;3.25;2.65;;;27.10;49.40;;;;;;4996298;28;20084;-53
2022/08/17 13:35:36;;;;;;;3.20;2.40;;;27.10;49.40;;;;;;4987169;28;20038;-46
2022/08/17 13:38:09;;;;;;;4.70;2.33;;;27.10;49.40;;;;;;4990227;28;20372;-46
2022/08/17 13:40:48;;;;;;;2.70;2.33;;;27.00;49.40;;;;;;4985190;28;20030;-46
2022/08/17 13:43:38;;;;;;;4.70;2.75;;;27.00;49.40;;;;;;4990922;28;20038;-46
2022/08/17 13:46:18;;;;;;;3.95;2.45;;;27.00;49.30;;;;;;4990904;28;20038;-46
2022/08/17 13:48:45;;;;;;;6.82;3.00;;;27.00;49.30;;;;;;4990668;28;20130;-48
2022/08/17 13:51:15;;;;;;;2.58;2.25;;;27.00;49.30;;;;;;4991590;28;20497;-46
2022/08/17 13:53:41;;;;;;;4.47;2.70;;;27.00;49.40;;;;;;4991582;28;20040;-52
2022/08/17 13:56:14;;;;;;;3.17;2.22;;;26.90;49.10;;;;;;4993129;28;20030;-49
2022/08/17 13:58:51;;;;;;;4.80;2.60;;;26.90;48.70;;;;;;4990928;28;20046;-50
2022/08/17 14:01:28;;;;;;;5.85;2.85;;;26.90;48.70;;;;;;4993125;28;20030;-46